Whitewater, Colorado
Current Conditions -  °F | °C
As of 5:53 PM on Saturday 20 Dec 2014 (Local Time) from KGJT Reporting Station
Overcast Overcast  
Wind Chill: 29°   Ceiling: 6500
Heat Index: 34°   Visibility: 10mi
Dew Point: 29°   Wind: 6mph
Humidity: 82%   Direction: 310°NW
Pressure: 30.11"   Gusts: NA
Location:  38.99°N, 108.45°W
Report Text: KGJT 210053Z 31005KT 10SM SCT050 OVC065 01/M02 A3011 RMK AO2 SLP213 T00111017
Loading
Personal Weather Stations






























Interactive Weather Map New forecast layout! Learn more

10-Day Weather Forecast

Advertisements
Track Severe Weather on mobile